Time;durP1;ratioP1;P1;durP2;ratioP2;P2;SDS_P1;SDS_P2;PMS_P1;PMS_P2;Temp;Humidity;BMP_temperature;BMP_pressure;BME280_temperature;BME280_humidity;BME280_pressure;Samples;Min_cycle;Max_cycle;Signal;HPM_P1;HPM_P2
2023/10/16 00:01:14;;;;;;;2.83;0.73;;;8.50;75.50;;;;;;5064916;28;20495;-63
2023/10/16 00:03:43;;;;;;;2.42;1.10;;;8.60;75.80;;;;;;5068290;28;20043;-64
2023/10/16 00:06:11;;;;;;;1.70;1.13;;;8.50;75.90;;;;;;5066533;28;20569;-63
2023/10/16 00:09:14;;;;;;;1.90;0.80;;;8.50;75.90;;;;;;5069006;28;20111;-63
2023/10/16 00:11:26;;;;;;;1.02;0.82;;;8.50;75.90;;;;;;5061061;28;20048;-64
2023/10/16 00:13:56;;;;;;;2.10;1.27;;;8.60;76.10;;;;;;5057800;28;20033;-64
2023/10/16 00:16:22;;;;;;;1.83;0.82;;;8.60;76.10;;;;;;5066839;28;20063;-63
2023/10/16 00:18:50;;;;;;;0.93;0.70;;;8.60;76.20;;;;;;5063493;28;20033;-63
2023/10/16 00:21:17;;;;;;;2.72;0.85;;;8.50;76.20;;;;;;5063064;28;20033;-64
2023/10/16 00:23:42;;;;;;;1.83;0.93;;;8.50;76.40;;;;;;5061868;28;20038;-63
2023/10/16 00:26:10;;;;;;;1.30;0.85;;;8.50;76.30;;;;;;5066054;28;20365;-64
2023/10/16 00:28:37;;;;;;;1.25;0.98;;;8.50;76.30;;;;;;5062502;28;20031;-64
2023/10/16 00:31:08;;;;;;;1.70;1.42;;;8.60;76.30;;;;;;5056249;28;20036;-64
2023/10/16 00:33:33;;;;;;;1.10;1.00;;;8.60;76.20;;;;;;5058910;28;20028;-64
2023/10/16 00:36:00;;;;;;;1.65;0.90;;;8.60;76.30;;;;;;5040257;28;20570;-64
2023/10/16 00:38:25;;;;;;;3.00;1.20;;;8.60;76.40;;;;;;5067279;28;20281;-64
2023/10/16 00:41:17;;;;;;;1.58;0.93;;;8.60;76.50;;;;;;5067077;28;20040;-67
2023/10/16 00:43:45;;;;;;;0.85;0.85;;;8.70;76.50;;;;;;5058127;28;20566;-67
2023/10/16 00:46:26;;;;;;;1.80;0.90;;;8.60;76.40;;;;;;5065100;28;20070;-67
2023/10/16 00:48:52;;;;;;;1.52;0.60;;;8.60;76.30;;;;;;5056907;28;20032;-67
2023/10/16 00:51:21;;;;;;;1.10;0.82;;;8.60;76.30;;;;;;5065271;28;20025;-67
2023/10/16 00:53:47;;;;;;;1.40;1.02;;;8.60;76.30;;;;;;5065011;28;20671;-67
2023/10/16 00:56:14;;;;;;;1.13;0.90;;;8.60;76.40;;;;;;5065407;28;20027;-67
2023/10/16 00:58:42;;;;;;;3.55;1.48;;;8.60;76.50;;;;;;5065610;28;20125;-67
2023/10/16 01:01:15;;;;;;;1.85;0.90;;;8.60;76.60;;;;;;5068436;28;20047;-67
2023/10/16 01:03:42;;;;;;;;;;;8.50;76.60;;;;;;5067538;28;20456;-67
2023/10/16 01:06:25;;;;;;;1.35;1.05;;;8.50;76.80;;;;;;5070686;28;19919;-67
2023/10/16 01:08:50;;;;;;;1.17;1.08;;;8.50;77.10;;;;;;5068744;28;20390;-67
2023/10/16 01:11:19;;;;;;;1.83;0.98;;;8.50;77.10;;;;;;5069333;28;20026;-64
2023/10/16 01:13:48;;;;;;;2.72;1.27;;;8.50;77.00;;;;;;5068211;28;20039;-63
2023/10/16 01:16:16;;;;;;;2.58;0.90;;;8.50;77.10;;;;;;5066976;28;20029;-64
2023/10/16 01:18:43;;;;;;;0.85;0.80;;;8.50;77.10;;;;;;5071680;28;20052;-64
2023/10/16 01:21:08;;;;;;;2.67;1.08;;;8.50;77.20;;;;;;5069073;28;20036;-64
2023/10/16 01:23:34;;;;;;;1.70;1.02;;;8.50;77.20;;;;;;5069238;28;20081;-64
2023/10/16 01:26:01;;;;;;;1.10;0.75;;;8.50;77.20;;;;;;5070988;28;20538;-63
2023/10/16 01:28:27;;;;;;;1.92;1.38;;;8.50;77.30;;;;;;5071240;28;20119;-64
2023/10/16 01:30:53;;;;;;;2.92;1.13;;;8.50;77.30;;;;;;5070155;28;20111;-64
2023/10/16 01:33:19;;;;;;;1.17;1.08;;;8.50;77.40;;;;;;5068489;28;20036;-64
2023/10/16 01:35:46;;;;;;;1.67;0.95;;;8.50;77.40;;;;;;5063454;28;20028;-64
2023/10/16 01:38:15;;;;;;;0.85;0.82;;;8.50;77.50;;;;;;5064926;28;20025;-64
2023/10/16 01:40:48;;;;;;;1.40;1.27;;;8.50;77.40;;;;;;5067816;28;20064;-67
2023/10/16 01:43:16;;;;;;;1.50;0.90;;;8.50;77.50;;;;;;5064405;28;20024;-68
2023/10/16 01:45:49;;;;;;;1.73;1.25;;;8.50;77.50;;;;;;5064935;28;20029;-67
2023/10/16 01:48:21;;;;;;;1.92;1.10;;;8.50;77.60;;;;;;5066779;28;20192;-67
2023/10/16 01:50:48;;;;;;;2.37;1.03;;;8.50;77.70;;;;;;5056755;28;20033;-67
2023/10/16 01:53:15;;;;;;;1.25;0.95;;;8.50;77.80;;;;;;5069312;28;20048;-68
2023/10/16 01:55:51;;;;;;;1.38;1.02;;;8.50;77.80;;;;;;5068164;28;20037;-67
2023/10/16 01:58:17;;;;;;;1.23;0.90;;;8.50;77.80;;;;;;5067801;28;20029;-67
2023/10/16 02:00:45;;;;;;;0.82;0.80;;;8.50;77.70;;;;;;5050152;28;20045;-67
2023/10/16 02:03:11;;;;;;;1.60;0.82;;;8.50;77.70;;;;;;5065516;28;20120;-67
2023/10/16 02:05:41;;;;;;;7.00;1.95;;;8.50;77.60;;;;;;5065796;28;20436;-67
2023/10/16 02:08:07;;;;;;;1.70;1.02;;;8.50;77.70;;;;;;5071229;28;20074;-67
2023/10/16 02:10:32;;;;;;;1.35;1.05;;;8.40;77.60;;;;;;5063584;28;20037;-67
2023/10/16 02:12:58;;;;;;;0.98;0.70;;;8.40;77.70;;;;;;5069640;28;20364;-68
2023/10/16 02:15:24;;;;;;;1.15;1.05;;;8.40;77.80;;;;;;5068478;28;20024;-67
2023/10/16 02:17:50;;;;;;;2.42;1.10;;;8.40;77.80;;;;;;5046902;28;20067;-67
2023/10/16 02:20:17;;;;;;;2.45;1.58;;;8.30;77.80;;;;;;5064285;28;20444;-67
2023/10/16 02:22:43;;;;;;;1.77;1.45;;;8.30;77.90;;;;;;5060405;28;20025;-67
2023/10/16 02:25:11;;;;;;;1.27;1.17;;;8.30;78.00;;;;;;5061667;28;20452;-67
2023/10/16 02:27:37;;;;;;;1.75;0.98;;;8.30;78.00;;;;;;5060865;28;20036;-67
2023/10/16 02:32:53;;;;;;;1.67;1.10;;;8.40;78.20;;;;;;5066079;28;20060;-63
2023/10/16 02:35:22;;;;;;;3.33;1.35;;;8.40;78.30;;;;;;5064816;28;20111;-63
2023/10/16 02:37:53;;;;;;;2.13;1.33;;;8.40;78.50;;;;;;5065112;28;20395;-64
2023/10/16 02:40:20;;;;;;;2.10;1.25;;;8.40;78.30;;;;;;5070188;28;20079;-63
2023/10/16 02:42:55;;;;;;;1.13;0.95;;;8.50;78.50;;;;;;5064362;28;20680;-64
2023/10/16 02:45:27;;;;;;;2.83;1.38;;;8.50;78.60;;;;;;5060702;28;20027;-64
2023/10/16 02:47:53;;;;;;;1.23;1.13;;;8.50;78.80;;;;;;5057310;28;20028;-64
2023/10/16 02:50:19;;;;;;;2.03;1.13;;;8.50;78.70;;;;;;5052103;28;20036;-64
2023/10/16 02:52:47;;;;;;;1.33;0.98;;;8.60;78.60;;;;;;5066772;28;20412;-64
2023/10/16 02:55:14;;;;;;;2.22;1.38;;;8.60;78.70;;;;;;5058176;28;20025;-64
2023/10/16 02:57:40;;;;;;;1.83;1.50;;;8.60;78.90;;;;;;5061001;28;20037;-63
2023/10/16 03:00:15;;;;;;;1.58;0.93;;;8.60;79.20;;;;;;5063298;28;20067;-67
2023/10/16 03:02:40;;;;;;;0.88;0.82;;;8.70;79.20;;;;;;5051552;28;20454;-67
2023/10/16 03:05:21;;;;;;;1.13;1.02;;;8.70;79.10;;;;;;5062292;28;20053;-67
2023/10/16 03:07:49;;;;;;;1.15;1.00;;;8.70;79.00;;;;;;5067144;28;20036;-66
2023/10/16 03:10:20;;;;;;;2.80;1.55;;;8.70;79.00;;;;;;5069597;28;20032;-66
2023/10/16 03:12:50;;;;;;;1.77;0.93;;;8.70;79.00;;;;;;5056630;28;20032;-66
2023/10/16 03:15:28;;;;;;;0.98;0.95;;;8.60;79.00;;;;;;5059259;28;20473;-66
2023/10/16 03:17:54;;;;;;;1.63;1.08;;;8.60;79.10;;;;;;5066377;28;20025;-66
2023/10/16 03:20:22;;;;;;;2.75;1.00;;;8.50;79.20;;;;;;5062744;28;20028;-66
2023/10/16 03:22:51;;;;;;;1.40;0.82;;;8.50;79.20;;;;;;5068698;28;20078;-66
2023/10/16 03:28:05;;;;;;;2.45;1.15;;;8.50;79.20;;;;;;5064048;28;20094;-63
2023/10/16 03:30:31;;;;;;;1.60;1.15;;;8.50;79.20;;;;;;5066167;28;20405;-62
2023/10/16 03:32:58;;;;;;;1.10;0.80;;;8.50;79.20;;;;;;5043752;28;20043;-62
2023/10/16 03:35:29;;;;;;;0.75;0.70;;;8.50;79.20;;;;;;5050252;28;20070;-63
2023/10/16 03:37:56;;;;;;;1.00;0.90;;;8.50;79.30;;;;;;5068402;28;20043;-63
2023/10/16 03:40:27;;;;;;;1.25;1.00;;;8.50;80.00;;;;;;5067556;28;20392;-63
2023/10/16 03:42:53;;;;;;;2.03;0.93;;;8.60;79.50;;;;;;5055880;28;20535;-62
2023/10/16 03:45:21;;;;;;;1.42;0.95;;;8.60;79.60;;;;;;5058180;28;20086;-62
2023/10/16 03:48:00;;;;;;;1.50;0.68;;;8.60;79.70;;;;;;5056218;28;20488;-62
2023/10/16 03:50:34;;;;;;;1.17;0.70;;;8.70;79.70;;;;;;5058030;28;20033;-62
2023/10/16 03:53:03;;;;;;;1.05;0.93;;;8.70;79.80;;;;;;5061726;28;20040;-62
2023/10/16 03:55:31;;;;;;;1.40;0.95;;;8.80;79.80;;;;;;5062862;28;20488;-62
2023/10/16 03:57:57;;;;;;;1.15;0.80;;;8.80;79.90;;;;;;5060201;28;20040;-62
2023/10/16 04:00:26;;;;;;;1.38;1.27;;;8.90;80.00;;;;;;5044856;28;20139;-62
2023/10/16 04:02:52;;;;;;;1.92;1.42;;;8.90;80.00;;;;;;5060467;28;20029;-62
2023/10/16 04:05:29;;;;;;;0.47;0.47;;;9.00;80.10;;;;;;5057738;28;20036;-62
2023/10/16 04:07:56;;;;;;;1.20;0.73;;;9.00;80.10;;;;;;5057675;28;20033;-62
2023/10/16 04:10:28;;;;;;;1.20;0.80;;;9.00;80.20;;;;;;5062194;28;20040;-62
2023/10/16 04:12:57;;;;;;;0.60;0.60;;;9.10;80.30;;;;;;5055464;28;20017;-62
2023/10/16 04:18:18;;;;;;;0.70;0.70;;;9.10;80.40;;;;;;5053743;28;20155;-62
2023/10/16 04:20:44;;;;;;;0.80;0.80;;;9.10;80.60;;;;;;5051627;28;20052;-62
2023/10/16 04:23:29;;;;;;;2.17;1.00;;;9.10;81.50;;;;;;5058447;28;20029;-62
2023/10/16 04:31:44;;;;;;;1.08;0.98;;;9.10;80.90;;;;;;5058809;28;20043;-62
2023/10/16 04:48:35;;;;;;;1.42;0.60;;;9.00;81.00;;;;;;5061302;28;20150;-62
2023/10/16 04:50:37;;;;;;;1.35;0.80;;;8.90;80.90;;;;;;5053987;28;20036;-62
2023/10/16 04:53:06;;;;;;;2.17;0.88;;;8.90;80.90;;;;;;5046225;28;20024;-62
2023/10/16 05:06:38;;;;;;;0.65;0.60;;;8.80;80.40;;;;;;5064307;28;20401;-62
2023/10/16 05:15:20;;;;;;;0.47;0.40;;;8.70;80.50;;;;;;5036889;28;20037;-62
2023/10/16 05:20:52;;;;;;;1.38;0.77;;;8.70;80.70;;;;;;4991707;28;20039;-62
2023/10/16 06:15:20;;;;;;;0.60;0.60;;;9.20;81.50;;;;;;5066818;28;20052;-62
2023/10/16 06:17:46;;;;;;;0.93;0.68;;;9.20;81.50;;;;;;5067312;28;20081;-62
2023/10/16 06:20:19;;;;;;;2.97;1.08;;;9.30;81.60;;;;;;5067568;28;20442;-63
2023/10/16 06:22:51;;;;;;;1.05;0.80;;;9.30;81.70;;;;;;5065762;28;20036;-63
2023/10/16 06:25:19;;;;;;;0.70;0.63;;;9.30;81.80;;;;;;5067974;28;20035;-67
2023/10/16 06:27:46;;;;;;;1.20;0.65;;;9.40;81.90;;;;;;5068351;28;20089;-66
2023/10/16 06:30:19;;;;;;;2.65;1.20;;;9.40;81.90;;;;;;5064282;28;20033;-66
2023/10/16 06:32:44;;;;;;;0.80;0.77;;;9.50;81.90;;;;;;5070515;28;20089;-66
2023/10/16 06:35:16;;;;;;;1.05;0.80;;;9.50;81.80;;;;;;5067923;28;20024;-66
2023/10/16 06:37:51;;;;;;;1.17;0.82;;;9.60;81.70;;;;;;5063753;28;20051;-66
2023/10/16 06:40:24;;;;;;;1.30;0.77;;;9.70;81.70;;;;;;5068314;28;20097;-66
2023/10/16 06:42:54;;;;;;;1.48;1.13;;;9.70;81.70;;;;;;5067265;28;20418;-66
2023/10/16 06:45:22;;;;;;;0.82;0.82;;;9.70;81.70;;;;;;5062256;28;20044;-66
2023/10/16 06:47:48;;;;;;;0.65;0.57;;;9.80;81.80;;;;;;5069059;28;20044;-66
2023/10/16 06:52:51;;;;;;;1.75;0.95;;;9.90;81.80;;;;;;5062794;28;20513;-66
2023/10/16 06:55:17;;;;;;;0.80;0.75;;;9.90;81.80;;;;;;5065799;28;20089;-66
2023/10/16 06:57:46;;;;;;;5.10;1.15;;;9.90;81.90;;;;;;5052207;28;20033;-66
2023/10/16 07:00:26;;;;;;;0.47;0.47;;;9.90;81.80;;;;;;5052825;28;20511;-66
2023/10/16 07:02:57;;;;;;;0.98;0.70;;;10.00;81.90;;;;;;5059647;28;20036;-66
2023/10/16 07:05:24;;;;;;;0.55;0.52;;;10.00;81.80;;;;;;5059887;28;20036;-66
2023/10/16 07:07:52;;;;;;;0.70;0.70;;;10.10;81.80;;;;;;5061897;28;20499;-66
2023/10/16 07:10:17;;;;;;;1.20;0.70;;;10.10;81.80;;;;;;5061133;28;20029;-66
2023/10/16 07:12:59;;;;;;;0.80;0.52;;;10.20;81.70;;;;;;5057330;28;20499;-66
2023/10/16 07:15:31;;;;;;;0.85;0.60;;;10.30;81.70;;;;;;5061301;28;20032;-66
2023/10/16 07:18:02;;;;;;;0.95;0.85;;;10.30;81.80;;;;;;5039362;28;20247;-66
2023/10/16 07:20:29;;;;;;;0.68;0.50;;;10.30;82.00;;;;;;5059874;28;20040;-66
2023/10/16 07:23:03;;;;;;;3.45;0.93;;;10.30;82.00;;;;;;5060991;28;20090;-66
2023/10/16 07:25:37;;;;;;;0.60;0.60;;;10.40;82.00;;;;;;5064582;28;20071;-67
2023/10/16 07:28:09;;;;;;;2.03;0.85;;;10.40;82.10;;;;;;5063335;28;20024;-65
2023/10/16 07:30:35;;;;;;;1.42;0.82;;;10.40;82.00;;;;;;5062933;28;20547;-63
2023/10/16 07:33:01;;;;;;;1.48;0.95;;;10.40;82.00;;;;;;5056240;28;20116;-64
2023/10/16 07:35:27;;;;;;;2.60;1.23;;;10.50;82.00;;;;;;5059766;28;20550;-64
2023/10/16 07:37:56;;;;;;;1.17;0.73;;;10.50;82.00;;;;;;5044146;28;20020;-64
2023/10/16 07:40:25;;;;;;;1.27;0.70;;;10.50;82.00;;;;;;5061767;28;20059;-63
2023/10/16 07:42:52;;;;;;;0.95;0.95;;;10.50;82.00;;;;;;5054471;28;20052;-66
2023/10/16 07:45:19;;;;;;;3.17;1.27;;;10.60;82.00;;;;;;5058892;28;20029;-65
2023/10/16 07:47:48;;;;;;;3.58;1.55;;;10.60;82.10;;;;;;5059447;28;20056;-65
2023/10/16 07:50:15;;;;;;;1.27;0.90;;;10.70;82.20;;;;;;5055413;28;20029;-63
2023/10/16 07:52:42;;;;;;;1.42;1.05;;;10.70;82.30;;;;;;5056889;28;20071;-64
2023/10/16 07:55:18;;;;;;;1.88;1.27;;;10.70;82.40;;;;;;5053916;28;20263;-64
2023/10/16 07:57:51;;;;;;;1.17;0.85;;;10.80;82.40;;;;;;5058840;28;20083;-63
2023/10/16 08:00:25;;;;;;;3.28;1.55;;;10.80;82.30;;;;;;5055923;28;20500;-63
2023/10/16 08:02:51;;;;;;;2.20;1.33;;;10.90;82.40;;;;;;5044704;28;20486;-66
2023/10/16 08:05:16;;;;;;;3.10;1.42;;;11.00;82.30;;;;;;5056677;28;20112;-65
2023/10/16 08:07:49;;;;;;;3.08;1.95;;;11.10;82.40;;;;;;5040946;28;20126;-66
2023/10/16 08:10:28;;;;;;;1.48;1.20;;;11.10;82.30;;;;;;5058296;28;20565;-66
2023/10/16 08:12:54;;;;;;;1.80;1.20;;;11.20;82.10;;;;;;5063058;28;20060;-65
2023/10/16 08:15:21;;;;;;;1.38;1.02;;;11.30;82.10;;;;;;5045298;28;20118;-65
2023/10/16 08:17:47;;;;;;;3.33;1.00;;;11.40;82.00;;;;;;5066729;28;20443;-66
2023/10/16 08:20:20;;;;;;;1.63;1.33;;;11.50;81.90;;;;;;5065924;28;20083;-66
2023/10/16 08:22:47;;;;;;;2.40;1.10;;;11.60;81.70;;;;;;5067330;28;20024;-66
2023/10/16 08:25:30;;;;;;;4.90;1.70;;;11.70;81.60;;;;;;5045194;28;20158;-66
2023/10/16 08:27:58;;;;;;;3.13;1.50;;;11.70;81.60;;;;;;5042016;28;20032;-65
2023/10/16 08:30:33;;;;;;;3.92;1.45;;;11.80;81.70;;;;;;5056526;28;20498;-65
2023/10/16 08:33:09;;;;;;;2.25;1.40;;;11.80;81.70;;;;;;5064816;28;20105;-65
2023/10/16 08:35:38;;;;;;;1.85;0.90;;;11.90;81.80;;;;;;5059350;28;20029;-65
2023/10/16 08:38:11;;;;;;;1.42;1.05;;;12.00;81.70;;;;;;5064276;28;20025;-62
2023/10/16 08:40:41;;;;;;;1.33;1.20;;;12.00;81.40;;;;;;5062691;28;20036;-62
2023/10/16 08:43:09;;;;;;;1.83;1.00;;;12.20;81.30;;;;;;5060852;28;20738;-62
2023/10/16 08:45:47;;;;;;;1.10;0.60;;;12.30;81.10;;;;;;5067034;28;20108;-62
2023/10/16 08:48:17;;;;;;;1.58;0.40;;;12.30;80.60;;;;;;5064279;28;20040;-62
2023/10/16 08:50:52;;;;;;;1.10;0.75;;;12.40;80.50;;;;;;5057960;28;20063;-62
2023/10/16 08:53:42;;;;;;;0.77;0.65;;;12.40;80.20;;;;;;5058320;28;20131;-62
2023/10/16 08:56:07;;;;;;;1.70;0.93;;;12.50;80.10;;;;;;5063416;28;20060;-65
2023/10/16 08:58:41;;;;;;;1.75;0.50;;;12.50;80.00;;;;;;5062996;28;20029;-65
2023/10/16 09:01:07;;;;;;;1.85;1.17;;;12.60;79.90;;;;;;5065592;28;20584;-65
2023/10/16 09:03:44;;;;;;;1.10;0.40;;;12.80;79.70;;;;;;5065558;28;20052;-62
2023/10/16 09:06:13;;;;;;;1.00;0.50;;;12.90;79.30;;;;;;5063531;28;20131;-62
2023/10/16 09:08:41;;;;;;;3.70;1.25;;;12.90;79.00;;;;;;5049905;28;20487;-62
2023/10/16 09:11:07;;;;;;;5.07;0.77;;;12.90;78.60;;;;;;5046421;28;20096;-62
2023/10/16 09:13:37;;;;;;;4.72;1.15;;;13.00;78.60;;;;;;5066724;28;20025;-62
2023/10/16 09:16:11;;;;;;;1.63;0.50;;;13.00;78.70;;;;;;5062796;28;20033;-62
2023/10/16 09:18:37;;;;;;;1.15;0.50;;;13.20;78.70;;;;;;5064258;28;20387;-62
2023/10/16 09:21:13;;;;;;;0.57;0.40;;;13.30;78.40;;;;;;5047750;28;20037;-64
2023/10/16 09:23:40;;;;;;;1.50;0.68;;;13.30;78.20;;;;;;5066871;28;20045;-64
2023/10/16 09:26:10;;;;;;;2.00;0.50;;;13.40;78.20;;;;;;5070194;28;20035;-64
2023/10/16 09:28:38;;;;;;;2.13;0.65;;;13.30;77.90;;;;;;5063321;28;20052;-65
2023/10/16 09:31:06;;;;;;;0.60;0.47;;;13.30;77.90;;;;;;5067913;28;20032;-67
2023/10/16 09:33:35;;;;;;;0.32;0.30;;;13.30;78.00;;;;;;5059852;28;20033;-68
2023/10/16 09:36:17;;;;;;;0.60;0.40;;;13.40;78.00;;;;;;5055923;28;20033;-68
2023/10/16 09:38:52;;;;;;;1.65;0.50;;;13.50;77.80;;;;;;5068366;28;20380;-68
2023/10/16 09:49:15;;;;;;;0.20;0.20;;;13.40;77.50;;;;;;5066642;28;20037;-68
2023/10/16 09:51:44;;;;;;;0.57;0.28;;;13.40;77.50;;;;;;5063358;28;20033;-67
2023/10/16 09:54:11;;;;;;;3.03;0.70;;;13.50;77.50;;;;;;5059304;28;20044;-67
2023/10/16 09:56:39;;;;;;;0.30;0.30;;;13.50;77.40;;;;;;5052067;28;20048;-68
2023/10/16 09:59:12;;;;;;;0.30;0.30;;;13.60;77.30;;;;;;5068133;28;20016;-67
2023/10/16 10:01:51;;;;;;;0.52;0.50;;;13.70;77.70;;;;;;5068430;28;20068;-67
2023/10/16 10:04:19;;;;;;;0.82;0.50;;;13.80;76.80;;;;;;5051677;28;20033;-66
2023/10/16 10:06:54;;;;;;;0.43;0.43;;;13.90;76.60;;;;;;5068919;28;20020;-65
2023/10/16 10:09:31;;;;;;;0.95;0.30;;;14.10;76.60;;;;;;5069350;28;20083;-67
2023/10/16 10:14:48;;;;;;;0.75;0.40;;;14.60;75.60;;;;;;5063203;28;20103;-68
2023/10/16 10:17:20;;;;;;;1.42;0.40;;;14.70;75.00;;;;;;5065410;28;20487;-68
2023/10/16 10:19:54;;;;;;;0.73;0.40;;;14.80;75.00;;;;;;5045788;28;20040;-67
2023/10/16 10:22:27;;;;;;;0.40;0.30;;;14.90;74.30;;;;;;5066261;28;20024;-67
2023/10/16 10:25:16;;;;;;;;;;;14.90;73.80;;;;;;5066157;28;20074;-66
2023/10/16 10:27:43;;;;;;;2.92;0.32;;;14.80;74.20;;;;;;5067957;28;19924;-67
2023/10/16 10:30:17;;;;;;;0.60;0.30;;;14.90;74.40;;;;;;5061126;28;20032;-66
2023/10/16 10:32:50;;;;;;;1.58;0.52;;;15.00;74.30;;;;;;5068451;28;20078;-65
2023/10/16 10:35:27;;;;;;;1.95;0.32;;;15.10;74.20;;;;;;5066571;28;20085;-64
2023/10/16 10:38:20;;;;;;;1.45;0.40;;;15.30;74.10;;;;;;5068364;28;20490;-64
2023/10/16 10:41:04;;;;;;;0.60;0.50;;;15.50;73.90;;;;;;5066717;28;20058;-65
2023/10/16 10:43:47;;;;;;;0.40;0.40;;;15.70;72.40;;;;;;5067487;28;20060;-65
2023/10/16 10:46:22;;;;;;;0.38;0.30;;;15.90;72.00;;;;;;5066864;28;20092;-64
2023/10/16 10:48:48;;;;;;;0.30;0.20;;;16.00;72.10;;;;;;5064835;28;20044;-61
2023/10/16 10:51:16;;;;;;;0.60;0.40;;;16.10;71.90;;;;;;5061385;28;20025;-61
2023/10/16 10:53:52;;;;;;;2.15;0.45;;;16.10;71.20;;;;;;5066772;28;20483;-62
2023/10/16 10:56:20;;;;;;;0.17;0.17;;;16.10;71.20;;;;;;5062946;28;20024;-63
2023/10/16 10:58:47;;;;;;;0.20;0.20;;;16.10;71.40;;;;;;5043321;28;20056;-63
2023/10/16 11:01:16;;;;;;;0.20;0.20;;;16.10;71.50;;;;;;5051321;28;20133;-63
2023/10/16 11:03:45;;;;;;;0.20;0.20;;;16.00;71.50;;;;;;5063790;28;20036;-63
2023/10/16 11:06:48;;;;;;;0.30;0.15;;;15.90;71.50;;;;;;5063839;28;20039;-63
2023/10/16 11:09:18;;;;;;;0.80;0.20;;;16.00;71.60;;;;;;5061379;28;20063;-63
2023/10/16 11:11:50;;;;;;;0.30;0.30;;;16.20;70.90;;;;;;5064883;28;20125;-63
2023/10/16 11:14:16;;;;;;;;;;;16.40;70.80;;;;;;5066987;28;20166;-64
2023/10/16 11:16:43;;;;;;;0.80;0.32;;;16.50;70.30;;;;;;5047983;28;20006;-62
2023/10/16 11:19:09;;;;;;;0.57;0.40;;;16.60;69.30;;;;;;5062841;28;20036;-62
2023/10/16 11:21:45;;;;;;;0.20;0.20;;;16.80;68.60;;;;;;5064591;28;20360;-62
2023/10/16 11:24:13;;;;;;;0.30;0.20;;;16.90;68.60;;;;;;5063735;28;20384;-62
2023/10/16 11:26:41;;;;;;;0.15;0.15;;;17.00;68.70;;;;;;5051674;28;20075;-64
2023/10/16 11:29:12;;;;;;;3.10;0.47;;;17.00;68.30;;;;;;5065920;28;20039;-64
2023/10/16 11:31:41;;;;;;;0.75;0.40;;;16.90;67.70;;;;;;5044341;28;20056;-62
2023/10/16 11:34:12;;;;;;;0.30;0.30;;;16.80;66.80;;;;;;5065599;28;20104;-63
2023/10/16 11:36:39;;;;;;;0.20;0.20;;;16.60;66.90;;;;;;5039750;28;20476;-63
2023/10/16 11:39:07;;;;;;;0.20;0.20;;;16.40;66.40;;;;;;5059050;28;20016;-62
2023/10/16 11:41:36;;;;;;;2.58;0.90;;;16.20;66.80;;;;;;5067665;28;20498;-62
2023/10/16 11:44:13;;;;;;;2.55;0.90;;;16.10;67.50;;;;;;5066968;28;20116;-63
2023/10/16 11:46:47;;;;;;;0.95;0.25;;;16.00;68.80;;;;;;5065279;28;20284;-63
2023/10/16 11:51:57;;;;;;;0.20;0.20;;;15.80;68.90;;;;;;5063874;28;20037;-62
2023/10/16 11:54:24;;;;;;;0.40;0.40;;;15.80;69.30;;;;;;5063281;28;20016;-63
2023/10/16 11:56:55;;;;;;;0.70;0.20;;;15.80;69.30;;;;;;5057662;28;20039;-63
2023/10/16 11:59:22;;;;;;;0.25;0.25;;;15.70;69.40;;;;;;5062201;28;20025;-63
2023/10/16 12:01:52;;;;;;;0.20;0.20;;;15.70;69.10;;;;;;5065684;28;20045;-62
2023/10/16 12:04:22;;;;;;;2.65;0.30;;;15.80;69.40;;;;;;5046468;28;20036;-63
2023/10/16 12:06:48;;;;;;;0.55;0.38;;;15.90;69.20;;;;;;5065051;28;20033;-63
2023/10/16 12:09:21;;;;;;;1.58;0.45;;;16.00;69.00;;;;;;5045298;28;20471;-62
2023/10/16 12:11:51;;;;;;;0.30;0.20;;;16.00;68.80;;;;;;5060990;28;20029;-62
2023/10/16 12:14:18;;;;;;;0.22;0.20;;;16.10;68.80;;;;;;5066900;28;20077;-63
2023/10/16 12:16:45;;;;;;;0.25;0.25;;;16.10;68.80;;;;;;5065804;28;20037;-63
2023/10/16 12:19:15;;;;;;;0.63;0.28;;;16.30;68.90;;;;;;5048414;28;20395;-63
2023/10/16 12:21:42;;;;;;;0.95;0.38;;;16.40;68.50;;;;;;5060519;28;20056;-62
2023/10/16 12:24:10;;;;;;;0.20;0.20;;;16.50;68.10;;;;;;5064587;28;20543;-63
2023/10/16 12:26:37;;;;;;;0.15;0.13;;;16.60;67.80;;;;;;5064561;28;20107;-63
2023/10/16 12:29:03;;;;;;;0.10;0.10;;;16.70;67.70;;;;;;5061745;28;20054;-62
2023/10/16 12:31:30;;;;;;;0.47;0.40;;;16.90;67.50;;;;;;5045519;28;20480;-62
2023/10/16 12:33:56;;;;;;;1.35;0.28;;;17.10;67.20;;;;;;5062166;28;20074;-62
2023/10/16 12:36:23;;;;;;;0.57;0.38;;;17.20;66.50;;;;;;5056897;28;20029;-62
2023/10/16 12:38:53;;;;;;;0.50;0.50;;;17.30;66.10;;;;;;5055774;28;20090;-62
2023/10/16 12:41:20;;;;;;;0.30;0.20;;;17.40;65.00;;;;;;5063255;28;20616;-63
2023/10/16 12:43:46;;;;;;;0.20;0.20;;;17.40;65.00;;;;;;5062704;28;20041;-66
2023/10/16 12:46:14;;;;;;;2.10;0.68;;;17.60;64.60;;;;;;5062730;28;20037;-66
2023/10/16 12:48:40;;;;;;;0.75;0.20;;;17.70;64.20;;;;;;5060439;28;20124;-66
2023/10/16 12:51:10;;;;;;;1.27;0.43;;;17.70;63.60;;;;;;5060889;28;20111;-66
2023/10/16 12:53:39;;;;;;;1.20;0.20;;;17.70;63.70;;;;;;5045020;28;20036;-66
2023/10/16 12:56:06;;;;;;;0.25;0.25;;;17.50;63.50;;;;;;5042587;28;20487;-66
2023/10/16 12:58:34;;;;;;;0.20;0.20;;;17.40;64.10;;;;;;5069132;28;20107;-63
2023/10/16 13:01:10;;;;;;;0.45;0.30;;;17.30;64.50;;;;;;5049112;28;20388;-62
2023/10/16 13:03:36;;;;;;;0.20;0.20;;;17.30;64.90;;;;;;5066702;28;20040;-63
2023/10/16 13:06:08;;;;;;;0.20;0.20;;;17.20;65.10;;;;;;5069540;28;20141;-63
2023/10/16 13:08:34;;;;;;;0.35;0.22;;;17.10;65.30;;;;;;5052874;28;20047;-63
2023/10/16 13:11:00;;;;;;;0.20;0.20;;;17.00;65.50;;;;;;5069488;28;20028;-63
2023/10/16 13:13:25;;;;;;;3.28;0.57;;;16.90;65.70;;;;;;5070791;28;20028;-62
2023/10/16 13:15:51;;;;;;;0.98;0.35;;;16.80;65.90;;;;;;5070381;28;20075;-63
2023/10/16 13:18:27;;;;;;;1.05;0.30;;;16.70;66.20;;;;;;5070409;28;20074;-63
2023/10/16 13:20:57;;;;;;;1.58;0.77;;;16.60;66.40;;;;;;5066443;28;20029;-63
2023/10/16 13:23:26;;;;;;;0.30;0.30;;;16.50;66.40;;;;;;5068872;28;20031;-62
2023/10/16 13:25:56;;;;;;;0.30;0.30;;;16.50;66.20;;;;;;5051883;28;20028;-66
2023/10/16 13:28:25;;;;;;;0.10;0.10;;;16.50;66.50;;;;;;5069564;28;20059;-63
2023/10/16 13:30:52;;;;;;;0.50;0.43;;;16.50;66.60;;;;;;5066721;28;20061;-63
2023/10/16 13:33:21;;;;;;;0.28;0.22;;;16.50;66.40;;;;;;5035567;28;20090;-62
2023/10/16 13:35:46;;;;;;;0.82;0.22;;;16.50;66.30;;;;;;5046306;28;20020;-62
2023/10/16 13:38:12;;;;;;;0.20;0.20;;;16.60;66.30;;;;;;5066794;28;20027;-68
2023/10/16 13:40:38;;;;;;;2.08;0.20;;;17.00;65.90;;;;;;5067673;28;20562;-67
2023/10/16 13:43:10;;;;;;;1.13;0.30;;;17.30;65.10;;;;;;5065558;28;20079;-63
2023/10/16 13:45:37;;;;;;;2.40;0.40;;;17.70;65.00;;;;;;5069690;28;20066;-63
2023/10/16 13:48:04;;;;;;;0.50;0.32;;;18.00;63.30;;;;;;5069475;28;20443;-63
2023/10/16 13:50:32;;;;;;;0.60;0.40;;;18.40;61.90;;;;;;5051760;28;20479;-64
2023/10/16 13:52:58;;;;;;;0.93;0.30;;;18.70;59.70;;;;;;5067297;28;20042;-65
2023/10/16 13:55:30;;;;;;;0.45;0.40;;;19.00;59.50;;;;;;5062575;28;20152;-64
2023/10/16 13:57:56;;;;;;;1.23;0.70;;;19.20;58.70;;;;;;5065985;28;20021;-64
2023/10/16 14:00:28;;;;;;;0.95;0.40;;;19.20;59.00;;;;;;5068225;28;20291;-64
2023/10/16 14:03:06;;;;;;;2.03;0.35;;;19.30;59.20;;;;;;5048567;28;20032;-64
2023/10/16 14:05:52;;;;;;;1.88;0.52;;;19.10;58.80;;;;;;5062620;28;20044;-64
2023/10/16 14:08:26;;;;;;;0.38;0.20;;;19.00;58.70;;;;;;5059788;28;20497;-64
2023/10/16 14:10:52;;;;;;;0.55;0.38;;;18.90;59.30;;;;;;5065632;28;20025;-64
2023/10/16 14:13:19;;;;;;;0.25;0.20;;;18.70;59.30;;;;;;5067938;28;20028;-64
2023/10/16 14:15:49;;;;;;;0.35;0.30;;;18.40;59.90;;;;;;5045770;28;20111;-64
2023/10/16 14:18:20;;;;;;;0.20;0.20;;;18.10;60.80;;;;;;5061816;28;20033;-64
2023/10/16 14:20:47;;;;;;;0.20;0.20;;;17.80;61.60;;;;;;5060860;28;20085;-64
2023/10/16 14:23:14;;;;;;;1.10;0.50;;;17.50;62.50;;;;;;5066603;28;20040;-64
2023/10/16 14:25:57;;;;;;;0.68;0.65;;;17.30;63.20;;;;;;5052623;28;20491;-64
2023/10/16 14:28:50;;;;;;;0.63;0.50;;;17.10;63.80;;;;;;5064359;28;20021;-67
2023/10/16 14:31:20;;;;;;;0.47;0.40;;;16.80;64.40;;;;;;5068668;28;20106;-64
2023/10/16 14:33:46;;;;;;;0.57;0.50;;;16.70;65.10;;;;;;5068471;28;20025;-67
2023/10/16 14:36:24;;;;;;;0.10;0.10;;;16.50;65.50;;;;;;5065655;28;20033;-67
2023/10/16 14:38:51;;;;;;;0.45;0.45;;;16.60;65.70;;;;;;5067687;28;20078;-67
2023/10/16 14:41:17;;;;;;;0.30;0.30;;;16.50;65.80;;;;;;5049298;28;20060;-67
2023/10/16 14:43:46;;;;;;;0.70;0.70;;;16.50;66.00;;;;;;5060800;28;20043;-64
2023/10/16 14:46:13;;;;;;;2.30;0.60;;;16.50;65.70;;;;;;5065260;28;20074;-64
2023/10/16 14:48:42;;;;;;;0.30;0.30;;;16.50;65.40;;;;;;5066527;28;20037;-68
2023/10/16 14:51:13;;;;;;;0.20;0.20;;;16.60;65.30;;;;;;5066328;28;20033;-64
2023/10/16 14:53:41;;;;;;;0.30;0.30;;;16.60;65.10;;;;;;5066868;28;20472;-64
2023/10/16 14:56:07;;;;;;;2.28;0.40;;;16.60;65.10;;;;;;5066172;28;20024;-64
2023/10/16 14:58:34;;;;;;;0.43;0.30;;;16.60;65.30;;;;;;5065588;28;20507;-64
2023/10/16 15:01:09;;;;;;;0.52;0.28;;;16.60;65.20;;;;;;5063369;28;20519;-64
2023/10/16 15:03:38;;;;;;;0.22;0.22;;;16.50;66.00;;;;;;5063916;28;20048;-64